Time;durP1;ratioP1;P1;durP2;ratioP2;P2;SDS_P1;SDS_P2;PMS_P1;PMS_P2;Temp;Humidity;BMP_temperature;BMP_pressure;BME280_temperature;BME280_humidity;BME280_pressure;Samples;Min_cycle;Max_cycle;Signal;HPM_P1;HPM_P2
2021/03/02 00:00:25;;;;;;;78.32;72.88;;;21.00;99.90;;;;;;5073492;28;20497;-62
2021/03/02 00:02:53;;;;;;;74.45;69.25;;;21.10;99.90;;;;;;5073455;28;20029;-59
2021/03/02 00:05:20;;;;;;;76.88;71.10;;;21.20;99.90;;;;;;5073452;28;20025;-59
2021/03/02 00:07:47;;;;;;;75.97;70.72;;;21.40;99.90;;;;;;5073181;28;20025;-62
2021/03/02 00:10:15;;;;;;;77.05;71.53;;;21.50;99.90;;;;;;5073372;28;20104;-60
2021/03/02 00:12:42;;;;;;;73.38;67.97;;;21.90;99.90;;;;;;5073606;28;20024;-61
2021/03/02 00:15:13;;;;;;;68.07;62.65;;;22.20;99.90;;;;;;5073314;28;20021;-58
2021/03/02 00:17:51;;;;;;;61.20;56.30;;;22.60;99.90;;;;;;5073700;28;20032;-62
2021/03/02 00:20:24;;;;;;;59.75;54.75;;;22.90;99.90;;;;;;5073258;28;20035;-62
2021/03/02 00:22:51;;;;;;;53.80;49.97;;;23.20;99.90;;;;;;5073899;28;20095;-60
2021/03/02 00:25:19;;;;;;;56.05;51.47;;;23.20;99.90;;;;;;5073184;28;20024;-60
2021/03/02 00:27:47;;;;;;;52.13;47.70;;;23.30;99.90;;;;;;5073243;28;20032;-60
2021/03/02 00:30:17;;;;;;;49.28;44.88;;;23.60;99.90;;;;;;5073163;28;20021;-57
2021/03/02 00:32:47;;;;;;;47.08;42.88;;;23.70;99.90;;;;;;5073058;28;20020;-57
2021/03/02 00:35:15;;;;;;;43.83;40.60;;;23.90;99.90;;;;;;5073385;28;20013;-64
2021/03/02 00:37:47;;;;;;;42.80;39.53;;;24.20;99.90;;;;;;5073079;28;20027;-62
2021/03/02 00:40:16;;;;;;;42.17;38.78;;;24.20;99.90;;;;;;5072810;28;20031;-63
2021/03/02 00:42:44;;;;;;;36.40;33.75;;;24.20;99.90;;;;;;5073050;28;20040;-59
2021/03/02 00:45:12;;;;;;;37.60;33.72;;;23.80;99.90;;;;;;5072991;28;20029;-65
2021/03/02 00:47:39;;;;;;;35.05;32.08;;;23.50;99.90;;;;;;5073019;28;20028;-64
2021/03/02 00:50:08;;;;;;;33.97;30.65;;;23.70;99.90;;;;;;5073726;28;20104;-65
2021/03/02 00:52:36;;;;;;;33.50;30.60;;;23.70;99.90;;;;;;5072839;28;20025;-64
2021/03/02 00:55:06;;;;;;;31.27;28.83;;;23.70;99.90;;;;;;5071580;28;20025;-63
2021/03/02 00:57:34;;;;;;;33.20;29.98;;;23.50;99.90;;;;;;5071566;28;20070;-64
2021/03/02 01:00:01;;;;;;;28.67;25.73;;;23.80;99.90;;;;;;5072801;28;20040;-64
2021/03/02 01:02:28;;;;;;;24.48;21.88;;;24.40;99.90;;;;;;5072786;28;20066;-67
2021/03/02 01:04:56;;;;;;;25.27;18.10;;;24.70;99.90;;;;;;5072713;28;20033;-64
2021/03/02 01:07:23;;;;;;;19.45;15.82;;;24.70;99.90;;;;;;5072724;28;20025;-62
2021/03/02 01:09:51;;;;;;;18.13;14.18;;;25.20;99.90;;;;;;5073064;28;20427;-58
2021/03/02 01:12:18;;;;;;;18.40;12.88;;;25.30;99.90;;;;;;5072785;28;20381;-62
2021/03/02 01:14:45;;;;;;;18.15;11.63;;;25.50;99.90;;;;;;5073139;28;20017;-60
2021/03/02 01:17:13;;;;;;;18.55;10.02;;;25.40;99.90;;;;;;5071303;28;20020;-59
2021/03/02 01:19:40;;;;;;;17.77;11.32;;;25.30;99.90;;;;;;5075157;28;20385;-59
2021/03/02 01:22:07;;;;;;;15.43;10.88;;;24.60;99.90;;;;;;5076304;28;20095;-59
2021/03/02 01:24:34;;;;;;;23.58;11.10;;;24.40;99.90;;;;;;5076328;28;20016;-59
2021/03/02 01:27:02;;;;;;;17.90;9.02;;;24.10;99.90;;;;;;5076235;28;20040;-59
2021/03/02 01:29:29;;;;;;;19.02;11.13;;;24.00;99.90;;;;;;5076386;28;20373;-59
2021/03/02 01:31:57;;;;;;;19.65;11.07;;;23.90;99.90;;;;;;5076304;28;20044;-59
2021/03/02 01:34:24;;;;;;;18.55;10.77;;;23.90;99.90;;;;;;5076253;28;20021;-59
2021/03/02 01:36:52;;;;;;;19.92;9.27;;;23.60;99.90;;;;;;5076131;28;20036;-58
2021/03/02 01:39:19;;;;;;;15.02;10.05;;;23.80;99.90;;;;;;5076426;28;20038;-62
2021/03/02 01:41:54;;;;;;;18.13;10.80;;;23.90;99.90;;;;;;5075926;28;20451;-63
2021/03/02 01:44:22;;;;;;;15.23;9.73;;;24.30;99.90;;;;;;5076051;28;20028;-63
2021/03/02 01:46:51;;;;;;;18.20;10.57;;;24.20;99.90;;;;;;5076225;28;20025;-64
2021/03/02 01:49:19;;;;;;;15.85;10.07;;;24.30;99.90;;;;;;5076259;28;20074;-65
2021/03/02 01:51:47;;;;;;;15.20;9.88;;;24.40;99.90;;;;;;5075979;28;20055;-63
2021/03/02 01:54:15;;;;;;;14.20;8.55;;;24.30;99.90;;;;;;5075865;28;20107;-62
2021/03/02 01:56:43;;;;;;;16.50;9.93;;;24.10;99.90;;;;;;5075925;28;20431;-63
2021/03/02 01:59:12;;;;;;;19.50;9.77;;;24.50;99.90;;;;;;5075884;28;20106;-63
2021/03/02 02:01:40;;;;;;;15.80;9.07;;;24.70;99.90;;;;;;5075820;28;20048;-62
2021/03/02 02:04:13;;;;;;;15.55;9.75;;;24.70;99.90;;;;;;5075420;28;20515;-63
2021/03/02 02:06:55;;;;;;;16.55;9.65;;;25.00;99.90;;;;;;5075528;28;20104;-63
2021/03/02 02:09:32;;;;;;;15.43;9.05;;;24.90;99.90;;;;;;5075463;28;20438;-62
2021/03/02 02:12:03;;;;;;;17.35;9.85;;;24.50;99.90;;;;;;5075696;28;20048;-62
2021/03/02 02:14:54;;;;;;;16.73;9.55;;;24.10;99.90;;;;;;5075687;28;20070;-63
2021/03/02 02:17:30;;;;;;;16.20;9.48;;;24.10;99.90;;;;;;5075503;28;20511;-62
2021/03/02 02:20:04;;;;;;;14.52;8.27;;;24.10;99.90;;;;;;5076021;28;20481;-62
2021/03/02 02:22:46;;;;;;;13.73;8.43;;;23.90;99.90;;;;;;5075713;28;20029;-64
2021/03/02 02:25:37;;;;;;;20.38;8.57;;;23.70;99.90;;;;;;5075389;28;20121;-63
2021/03/02 02:28:05;;;;;;;17.65;9.38;;;24.20;99.90;;;;;;5075284;28;20106;-60
2021/03/02 02:30:33;;;;;;;13.40;9.57;;;24.10;99.90;;;;;;5075206;28;20443;-62
2021/03/02 02:33:02;;;;;;;19.42;8.90;;;24.10;99.90;;;;;;5075204;28;20032;-63
2021/03/02 02:35:31;;;;;;;15.88;8.88;;;24.10;99.90;;;;;;5073907;28;20078;-60
2021/03/02 02:38:00;;;;;;;14.82;9.40;;;24.00;99.90;;;;;;5075174;28;20441;-64
2021/03/02 02:40:28;;;;;;;15.65;9.00;;;24.20;99.90;;;;;;5074927;28;20016;-60
2021/03/02 02:42:56;;;;;;;17.10;8.55;;;24.00;99.90;;;;;;5075101;28;20055;-63
2021/03/02 02:45:23;;;;;;;13.85;9.15;;;23.50;99.90;;;;;;5074842;28;20025;-63
2021/03/02 02:47:51;;;;;;;16.63;9.13;;;23.50;99.90;;;;;;5075217;28;20086;-63
2021/03/02 02:50:19;;;;;;;11.80;7.15;;;23.50;99.90;;;;;;5074900;28;20377;-64
2021/03/02 02:52:47;;;;;;;13.98;8.23;;;23.30;99.90;;;;;;5074684;28;20030;-60
2021/03/02 02:55:16;;;;;;;11.43;8.13;;;23.70;99.90;;;;;;5074738;28;20032;-67
2021/03/02 02:57:48;;;;;;;12.75;6.60;;;23.90;99.90;;;;;;5074644;28;20028;-67
2021/03/02 03:00:19;;;;;;;10.60;7.53;;;24.20;99.90;;;;;;5074923;28;20469;-67
2021/03/02 03:02:51;;;;;;;12.50;7.93;;;24.20;99.90;;;;;;5074501;28;20024;-67
2021/03/02 03:05:22;;;;;;;11.90;6.97;;;24.30;99.90;;;;;;5073239;28;20017;-68
2021/03/02 03:08:08;;;;;;;14.55;8.48;;;23.90;99.90;;;;;;5074495;28;20025;-63
2021/03/02 03:10:38;;;;;;;12.70;7.50;;;23.80;99.90;;;;;;5074931;28;20484;-63
2021/03/02 03:13:08;;;;;;;11.63;7.10;;;23.50;99.90;;;;;;5074488;28;20017;-67
2021/03/02 03:15:36;;;;;;;;;;;23.30;99.90;;;;;;5074747;28;20024;-66
2021/03/02 03:18:11;;;;;;;11.02;7.90;;;23.60;99.90;;;;;;5074548;28;19911;-65
2021/03/02 03:20:39;;;;;;;12.50;7.53;;;24.00;99.90;;;;;;5074240;28;20027;-67
2021/03/02 03:23:08;;;;;;;14.63;6.63;;;24.20;99.90;;;;;;5074164;28;20089;-66
2021/03/02 03:25:35;;;;;;;15.07;7.57;;;24.70;99.90;;;;;;5074059;28;20028;-63
2021/03/02 03:28:04;;;;;;;9.45;7.10;;;24.30;99.90;;;;;;5074055;28;20021;-63
2021/03/02 03:30:34;;;;;;;15.68;6.70;;;24.20;99.90;;;;;;5074080;28;20028;-62
2021/03/02 03:33:05;;;;;;;15.63;8.20;;;23.90;99.90;;;;;;5073971;28;20020;-63
2021/03/02 03:35:34;;;;;;;15.80;8.07;;;23.50;99.90;;;;;;5073900;28;20017;-64
2021/03/02 03:38:01;;;;;;;14.77;8.15;;;23.30;99.90;;;;;;5073785;28;20100;-64
2021/03/02 03:40:29;;;;;;;10.75;6.43;;;23.60;99.90;;;;;;5073817;28;20023;-63
2021/03/02 03:42:56;;;;;;;12.32;7.63;;;23.60;99.90;;;;;;5073308;28;20031;-65
2021/03/02 03:45:24;;;;;;;15.13;7.50;;;23.70;99.90;;;;;;5073488;28;20024;-65
2021/03/02 03:47:51;;;;;;;13.70;6.43;;;24.10;99.90;;;;;;5073671;28;20021;-65
2021/03/02 03:50:19;;;;;;;13.27;6.95;;;24.10;99.90;;;;;;5073563;28;20017;-65
2021/03/02 03:52:57;;;;;;;15.15;7.20;;;23.80;99.90;;;;;;5073570;28;20025;-66
2021/03/02 03:55:30;;;;;;;12.02;7.03;;;24.10;99.90;;;;;;5073875;28;20467;-64
2021/03/02 03:57:58;;;;;;;14.00;7.65;;;24.00;99.90;;;;;;5073994;28;20043;-64
2021/03/02 04:00:26;;;;;;;13.43;7.75;;;23.90;99.90;;;;;;5073394;28;20104;-61
2021/03/02 04:02:54;;;;;;;12.63;6.75;;;23.80;99.90;;;;;;5073227;28;20380;-64
2021/03/02 04:05:22;;;;;;;10.32;5.13;;;23.80;99.90;;;;;;5073224;28;20491;-64
2021/03/02 04:07:50;;;;;;;13.18;6.60;;;23.70;99.90;;;;;;5073267;28;20350;-61
2021/03/02 04:10:18;;;;;;;13.18;7.75;;;23.50;99.90;;;;;;5073180;28;20411;-64
2021/03/02 04:12:47;;;;;;;14.05;6.75;;;23.50;99.90;;;;;;5073097;28;20059;-63
2021/03/02 04:15:18;;;;;;;9.77;7.22;;;23.50;99.90;;;;;;5073094;28;20024;-63
2021/03/02 04:17:54;;;;;;;12.30;6.75;;;23.60;99.90;;;;;;5071921;28;20032;-63
2021/03/02 04:20:21;;;;;;;10.90;6.75;;;23.60;99.90;;;;;;5071944;28;20041;-62
2021/03/02 04:22:49;;;;;;;14.52;7.32;;;23.80;99.90;;;;;;5073124;28;20052;-65
2021/03/02 04:25:16;;;;;;;14.38;6.88;;;24.30;99.90;;;;;;5073444;28;20023;-63
2021/03/02 04:27:44;;;;;;;15.13;7.13;;;23.90;99.90;;;;;;5073397;28;20442;-62
2021/03/02 04:30:12;;;;;;;14.18;8.18;;;24.00;99.90;;;;;;5073046;28;20107;-61
2021/03/02 04:32:39;;;;;;;10.95;7.47;;;24.20;99.90;;;;;;5073502;28;20020;-60
2021/03/02 04:35:07;;;;;;;16.45;7.90;;;24.60;99.90;;;;;;5073017;28;20362;-60
2021/03/02 04:37:35;;;;;;;11.63;6.97;;;24.40;99.90;;;;;;5073037;28;20021;-66
2021/03/02 04:40:04;;;;;;;11.35;6.55;;;24.30;99.90;;;;;;5072992;28;20473;-62
2021/03/02 04:42:32;;;;;;;10.45;6.22;;;24.10;99.90;;;;;;5072927;28;20098;-64
2021/03/02 04:44:59;;;;;;;12.52;7.20;;;23.80;99.90;;;;;;5072996;28;20024;-64
2021/03/02 04:47:26;;;;;;;15.25;7.45;;;23.80;99.90;;;;;;5072839;28;20031;-60
2021/03/02 04:49:54;;;;;;;11.50;7.32;;;23.80;99.90;;;;;;5072905;28;20024;-63
2021/03/02 04:52:21;;;;;;;13.73;7.90;;;24.30;99.90;;;;;;5072872;28;20037;-63
2021/03/02 04:54:49;;;;;;;12.95;7.95;;;24.10;99.90;;;;;;5075952;28;20377;-58
2021/03/02 04:57:16;;;;;;;14.63;7.05;;;23.70;99.90;;;;;;5076988;28;20021;-59
2021/03/02 04:59:43;;;;;;;15.07;6.85;;;23.30;99.90;;;;;;5077023;28;20020;-59
2021/03/02 05:02:10;;;;;;;11.02;6.30;;;23.10;99.90;;;;;;5076882;28;20469;-63
2021/03/02 05:04:38;;;;;;;10.80;7.13;;;23.50;99.90;;;;;;5076754;28;20362;-59
2021/03/02 05:07:05;;;;;;;10.07;6.07;;;23.90;99.90;;;;;;5076671;28;20056;-65
2021/03/02 05:09:33;;;;;;;12.98;7.72;;;24.00;99.90;;;;;;5076729;28;20051;-66
2021/03/02 05:12:00;;;;;;;11.07;6.60;;;23.90;99.90;;;;;;5076728;28;20031;-60
2021/03/02 05:14:27;;;;;;;13.07;5.85;;;23.60;99.90;;;;;;5076632;28;20170;-62
2021/03/02 05:16:55;;;;;;;11.18;6.50;;;23.90;99.90;;;;;;5076451;28;20021;-59
2021/03/02 05:19:22;;;;;;;13.35;7.03;;;23.40;99.90;;;;;;5076426;28;20403;-62
2021/03/02 05:21:49;;;;;;;9.05;5.68;;;23.50;99.90;;;;;;5076513;28;20411;-59
2021/03/02 05:24:17;;;;;;;12.98;6.72;;;23.50;99.90;;;;;;5076417;28;20468;-61
2021/03/02 05:26:44;;;;;;;10.30;6.07;;;23.10;99.90;;;;;;5076175;28;20468;-60
2021/03/02 05:29:11;;;;;;;12.02;6.50;;;23.20;99.90;;;;;;5076372;28;20465;-60
2021/03/02 05:31:39;;;;;;;13.00;6.30;;;23.30;99.90;;;;;;5076139;28;20017;-60
2021/03/02 05:34:06;;;;;;;12.43;6.05;;;24.00;99.90;;;;;;5076107;28;20052;-60
2021/03/02 05:36:33;;;;;;;14.25;6.63;;;23.80;99.90;;;;;;5076225;28;20016;-60
2021/03/02 05:39:01;;;;;;;11.93;6.95;;;23.40;99.90;;;;;;5076161;28;20120;-62
2021/03/02 05:41:28;;;;;;;13.40;7.47;;;23.00;99.90;;;;;;5075863;28;20094;-59
2021/03/02 05:43:57;;;;;;;12.60;8.00;;;22.30;99.90;;;;;;5076206;28;20417;-59
2021/03/02 05:46:25;;;;;;;10.82;6.72;;;22.50;99.90;;;;;;5076046;28;20123;-59
2021/03/02 05:48:52;;;;;;;11.07;6.57;;;22.80;99.90;;;;;;5075892;28;20024;-59
2021/03/02 05:51:20;;;;;;;12.30;7.75;;;23.10;99.90;;;;;;5075864;28;20469;-59
2021/03/02 05:53:48;;;;;;;13.70;7.53;;;23.00;99.90;;;;;;5075730;28;20338;-59
2021/03/02 05:56:15;;;;;;;13.57;6.32;;;23.00;99.90;;;;;;5075782;28;20024;-62
2021/03/02 05:58:43;;;;;;;12.10;6.55;;;23.30;99.90;;;;;;5076016;28;20081;-61
2021/03/02 06:01:10;;;;;;;11.57;6.43;;;23.40;99.90;;;;;;5075602;28;20416;-61
2021/03/02 06:03:38;;;;;;;13.20;7.13;;;22.90;99.90;;;;;;5075651;28;20074;-61
2021/03/02 06:06:06;;;;;;;10.07;8.18;;;23.00;99.90;;;;;;5074941;28;20028;-61
2021/03/02 06:08:34;;;;;;;13.35;7.70;;;22.90;99.90;;;;;;5075542;28;20020;-62
2021/03/02 06:11:35;;;;;;;11.73;6.60;;;22.70;99.90;;;;;;5075331;28;20035;-64
2021/03/02 06:14:24;;;;;;;15.35;8.23;;;22.80;99.90;;;;;;5075293;28;20103;-63
2021/03/02 06:16:52;;;;;;;10.68;7.13;;;22.60;99.90;;;;;;5075097;28;20047;-65
2021/03/02 06:19:36;;;;;;;15.13;8.00;;;23.20;99.90;;;;;;5075178;28;20028;-71
2021/03/02 06:22:04;;;;;;;16.98;7.35;;;23.30;99.90;;;;;;5075193;28;20036;-69
2021/03/02 06:24:40;;;;;;;13.70;7.70;;;22.80;99.90;;;;;;5075303;28;20530;-69
2021/03/02 06:27:09;;;;;;;14.02;7.90;;;22.80;99.90;;;;;;5075116;28;20118;-69
2021/03/02 06:29:36;;;;;;;12.70;7.45;;;23.10;99.90;;;;;;5075285;28;20024;-69
2021/03/02 06:32:04;;;;;;;13.73;7.85;;;22.70;99.90;;;;;;5075149;28;20020;-69
2021/03/02 06:34:31;;;;;;;13.75;7.57;;;22.70;99.90;;;;;;5074951;28;20035;-70
2021/03/02 06:37:04;;;;;;;11.88;7.68;;;22.70;99.90;;;;;;5074907;28;20024;-70
2021/03/02 06:39:42;;;;;;;13.07;8.73;;;22.40;99.90;;;;;;5075328;28;20082;-69
2021/03/02 06:42:23;;;;;;;11.52;8.23;;;22.40;99.90;;;;;;5074833;28;20098;-73
2021/03/02 06:45:07;;;;;;;13.55;7.50;;;22.10;99.90;;;;;;5074946;28;20505;-73
2021/03/02 06:47:39;;;;;;;15.30;6.07;;;22.20;99.90;;;;;;5074685;28;20393;-70
2021/03/02 06:50:13;;;;;;;10.63;7.65;;;21.90;99.90;;;;;;5074820;28;20107;-71
2021/03/02 06:52:43;;;;;;;11.30;7.68;;;22.00;99.90;;;;;;5074708;28;20025;-72
2021/03/02 06:55:16;;;;;;;16.27;6.80;;;21.80;99.90;;;;;;5074854;28;20032;-71
2021/03/02 06:57:44;;;;;;;14.23;6.70;;;21.80;99.90;;;;;;5075247;28;20028;-73
2021/03/02 07:00:12;;;;;;;18.27;8.32;;;21.80;99.90;;;;;;5074468;28;20050;-73
2021/03/02 07:02:44;;;;;;;13.23;8.45;;;21.60;99.90;;;;;;5074456;28;20059;-70
2021/03/02 07:05:17;;;;;;;16.30;7.82;;;21.60;99.90;;;;;;5074828;28;20027;-72
2021/03/02 07:07:47;;;;;;;16.15;8.38;;;21.60;99.90;;;;;;5073360;28;20536;-71
2021/03/02 07:10:16;;;;;;;15.65;8.05;;;21.50;99.90;;;;;;5074489;28;20526;-73
2021/03/02 07:12:45;;;;;;;15.68;7.72;;;21.50;99.90;;;;;;5074957;28;20108;-70
2021/03/02 07:15:17;;;;;;;14.43;7.35;;;21.60;99.90;;;;;;5074337;28;20031;-74
2021/03/02 07:17:49;;;;;;;12.32;7.43;;;21.40;99.90;;;;;;5074114;28;20037;-73
2021/03/02 07:20:18;;;;;;;17.63;8.02;;;21.20;99.90;;;;;;5074280;28;20124;-74
2021/03/02 07:22:51;;;;;;;11.13;7.50;;;21.20;99.90;;;;;;5074052;28;20590;-73
2021/03/02 07:25:23;;;;;;;12.55;7.07;;;21.10;99.90;;;;;;5073896;28;20116;-73
2021/03/02 07:27:55;;;;;;;18.70;8.73;;;21.20;99.90;;;;;;5073996;28;20035;-74
2021/03/02 07:30:23;;;;;;;11.75;7.80;;;21.10;99.90;;;;;;5074524;28;20104;-74
2021/03/02 07:32:50;;;;;;;11.90;6.80;;;21.00;99.90;;;;;;5073891;28;20028;-73
2021/03/02 07:35:23;;;;;;;11.80;6.68;;;20.90;99.90;;;;;;5073999;28;20027;-73
2021/03/02 07:37:50;;;;;;;20.05;9.20;;;21.00;99.90;;;;;;5074492;28;20024;-72
2021/03/02 07:40:21;;;;;;;14.57;7.70;;;21.00;99.90;;;;;;5072319;28;20028;-72
2021/03/02 07:42:48;;;;;;;13.43;7.35;;;21.00;99.90;;;;;;5073731;28;20063;-69
2021/03/02 07:45:18;;;;;;;13.27;8.23;;;21.00;99.90;;;;;;5073634;28;20489;-74
2021/03/02 07:47:53;;;;;;;13.13;8.23;;;20.90;99.90;;;;;;5073737;28;20504;-72
2021/03/02 07:50:29;;;;;;;14.82;7.35;;;21.00;99.90;;;;;;5073559;28;20492;-67
2021/03/02 07:53:20;;;;;;;13.90;6.90;;;21.00;99.90;;;;;;5073559;28;20033;-63
2021/03/02 07:56:07;;;;;;;;;;;20.90;99.90;;;;;;5073849;28;20026;-62
2021/03/02 07:58:34;;;;;;;11.77;7.38;;;21.00;99.90;;;;;;5066260;28;19905;-63
2021/03/02 08:01:22;;;;;;;11.82;6.97;;;21.00;99.90;;;;;;5073435;28;20029;-63
2021/03/02 08:03:50;;;;;;;12.40;7.68;;;20.90;99.90;;;;;;5073429;28;20036;-68
2021/03/02 08:06:33;;;;;;;14.25;7.65;;;20.90;99.90;;;;;;5073943;28;20374;-65
2021/03/02 08:09:26;;;;;;;13.25;7.13;;;20.90;99.90;;;;;;5074536;28;20103;-60
2021/03/02 08:11:54;;;;;;;13.30;8.10;;;20.80;99.90;;;;;;5073842;28;20083;-60
2021/03/02 08:14:28;;;;;;;13.55;7.40;;;20.80;99.90;;;;;;5073248;28;20052;-65
2021/03/02 08:17:05;;;;;;;9.10;6.30;;;20.80;99.90;;;;;;5073408;28;20028;-67
2021/03/02 08:19:59;;;;;;;11.10;6.70;;;20.50;99.90;;;;;;5073425;28;20112;-62
2021/03/02 08:22:30;;;;;;;19.60;8.57;;;20.40;99.90;;;;;;5073729;28;20024;-63
2021/03/02 08:24:58;;;;;;;14.15;7.60;;;20.20;99.90;;;;;;5073311;28;20028;-64
2021/03/02 08:27:42;;;;;;;12.48;5.93;;;20.30;99.90;;;;;;5072839;28;20021;-65
2021/03/02 08:30:13;;;;;;;10.30;6.70;;;20.30;99.90;;;;;;5072999;28;20429;-63
2021/03/02 08:32:42;;;;;;;13.30;7.68;;;20.30;99.90;;;;;;5073592;28;20020;-63
2021/03/02 08:35:13;;;;;;;13.20;7.07;;;20.30;99.90;;;;;;5072934;28;20024;-62
2021/03/02 08:37:44;;;;;;;21.83;7.97;;;20.30;99.90;;;;;;5073103;28;20024;-63
2021/03/02 08:40:18;;;;;;;13.25;7.32;;;20.40;99.90;;;;;;5073077;28;20033;-62
2021/03/02 08:43:05;;;;;;;14.20;8.30;;;20.40;99.90;;;;;;5072992;28;20043;-64
2021/03/02 08:45:36;;;;;;;13.07;7.30;;;20.30;99.90;;;;;;5072871;28;20126;-59
2021/03/02 08:48:14;;;;;;;18.00;9.35;;;20.40;99.90;;;;;;5073399;28;20055;-59
2021/03/02 08:50:42;;;;;;;15.32;8.88;;;20.40;99.90;;;;;;5073177;28;20020;-59
2021/03/02 08:53:31;;;;;;;13.45;8.10;;;20.30;99.90;;;;;;5072949;28;20024;-59
2021/03/02 08:56:00;;;;;;;19.23;9.82;;;20.20;99.90;;;;;;5072962;28;20370;-63
2021/03/02 08:58:39;;;;;;;22.63;9.93;;;20.20;99.90;;;;;;5072735;28;20024;-58
2021/03/02 09:01:27;;;;;;;15.82;7.68;;;20.20;99.90;;;;;;5072663;28;20437;-59
2021/03/02 09:04:07;;;;;;;13.35;8.70;;;20.20;99.90;;;;;;5072757;28;20480;-60
2021/03/02 09:06:35;;;;;;;16.42;8.40;;;20.00;99.90;;;;;;5072737;28;20032;-61
2021/03/02 09:09:06;;;;;;;12.63;7.97;;;20.10;99.90;;;;;;5072817;28;20099;-60
2021/03/02 09:11:39;;;;;;;11.13;7.93;;;20.00;99.90;;;;;;5073034;28;20021;-59
2021/03/02 09:14:24;;;;;;;13.23;8.43;;;20.10;99.90;;;;;;5073332;28;20464;-61
2021/03/02 09:16:58;;;;;;;14.52;8.43;;;20.20;99.90;;;;;;5072968;28;20074;-61
2021/03/02 09:19:29;;;;;;;16.70;8.13;;;20.20;99.90;;;;;;5072681;28;20104;-60
2021/03/02 09:22:08;;;;;;;17.83;8.68;;;20.30;99.90;;;;;;5072736;28;20025;-59
2021/03/02 09:24:40;;;;;;;16.27;7.60;;;20.30;99.90;;;;;;5071362;28;20024;-61
2021/03/02 09:27:10;;;;;;;14.45;7.50;;;20.30;99.90;;;;;;5073143;28;20060;-61
2021/03/02 09:29:46;;;;;;;17.60;7.38;;;20.30;99.90;;;;;;5072474;28;20021;-60
2021/03/02 09:32:17;;;;;;;13.48;8.40;;;20.20;99.90;;;;;;5072532;28;20051;-60
2021/03/02 09:34:46;;;;;;;13.95;8.15;;;20.20;99.90;;;;;;5072533;28;20154;-61
2021/03/02 09:37:19;;;;;;;12.75;7.78;;;20.30;99.90;;;;;;5071809;28;20024;-61
2021/03/02 09:40:04;;;;;;;16.80;8.65;;;20.30;99.90;;;;;;5073525;28;20409;-62
2021/03/02 09:42:35;;;;;;;15.00;8.25;;;20.20;99.90;;;;;;5075849;28;20408;-60
2021/03/02 09:45:20;;;;;;;15.02;7.03;;;20.20;99.90;;;;;;5076493;28;20027;-61
2021/03/02 09:47:58;;;;;;;10.90;8.15;;;20.20;99.90;;;;;;5075959;28;20433;-60
2021/03/02 09:50:34;;;;;;;16.17;7.85;;;20.10;99.90;;;;;;5075793;28;20028;-59
2021/03/02 09:53:15;;;;;;;15.02;6.72;;;20.10;99.90;;;;;;5075952;28;20476;-60
2021/03/02 09:55:45;;;;;;;;;;;20.20;99.90;;;;;;5075113;28;20021;-60
2021/03/02 09:58:16;;;;;;;;;;;20.10;99.90;;;;;;5076363;28;19916;-61
2021/03/02 10:00:46;;;;;;;22.10;7.60;;;20.20;99.90;;;;;;5075892;28;19904;-61
2021/03/02 10:03:16;;;;;;;11.85;8.52;;;20.20;99.90;;;;;;5076319;28;20069;-60
2021/03/02 10:05:46;;;;;;;11.88;7.95;;;20.20;99.90;;;;;;5075587;28;20053;-60
2021/03/02 10:08:24;;;;;;;18.25;7.63;;;20.20;99.90;;;;;;5075529;28;20055;-60
2021/03/02 10:10:57;;;;;;;13.00;6.68;;;20.20;99.90;;;;;;5074252;28;20032;-62
2021/03/02 10:13:26;;;;;;;14.38;7.95;;;20.10;99.90;;;;;;5076202;28;20365;-62
2021/03/02 10:16:15;;;;;;;11.55;7.13;;;20.10;99.90;;;;;;5075510;28;20029;-61
2021/03/02 10:18:48;;;;;;;11.90;6.32;;;20.10;99.90;;;;;;5075682;28;20031;-62
2021/03/02 10:21:17;;;;;;;11.80;7.55;;;20.10;99.90;;;;;;5075442;28;20020;-62
2021/03/02 10:23:46;;;;;;;17.40;8.18;;;20.10;99.90;;;;;;5075339;28;20060;-63
2021/03/02 10:26:21;;;;;;;11.60;6.28;;;20.20;99.90;;;;;;5073973;28;20455;-63
2021/03/02 10:28:49;;;;;;;13.23;7.55;;;20.10;99.90;;;;;;5075291;28;20067;-61
2021/03/02 10:31:16;;;;;;;9.85;6.85;;;20.10;99.90;;;;;;5075101;28;20020;-61
2021/03/02 10:33:44;;;;;;;12.63;6.65;;;20.10;99.90;;;;;;5075147;28;20500;-61
2021/03/02 10:36:25;;;;;;;11.05;6.30;;;20.00;99.90;;;;;;5075137;28;20101;-61
2021/03/02 10:38:53;;;;;;;13.88;7.43;;;20.00;99.90;;;;;;5075017;28;20028;-61
2021/03/02 10:41:21;;;;;;;11.98;7.80;;;20.00;99.90;;;;;;5074913;28;20517;-61
2021/03/02 10:43:50;;;;;;;13.88;6.70;;;20.10;99.90;;;;;;5073907;28;20108;-63
2021/03/02 10:46:18;;;;;;;9.73;6.90;;;20.10;99.90;;;;;;5074866;28;20028;-62
2021/03/02 10:48:46;;;;;;;12.23;7.72;;;20.10;99.90;;;;;;5074990;28;20028;-62
2021/03/02 10:51:15;;;;;;;11.75;6.32;;;20.10;99.90;;;;;;5074786;28;20461;-62
2021/03/02 10:53:44;;;;;;;11.93;6.75;;;20.00;99.90;;;;;;5075417;28;20028;-62
2021/03/02 10:56:11;;;;;;;12.50;8.13;;;19.90;99.90;;;;;;5074837;28;20020;-62
2021/03/02 10:58:39;;;;;;;11.45;6.85;;;20.00;99.90;;;;;;5074785;28;20036;-62
2021/03/02 11:01:06;;;;;;;9.55;7.57;;;20.00;99.90;;;;;;5074908;28;20380;-62
2021/03/02 11:03:34;;;;;;;9.20;7.72;;;20.00;99.90;;;;;;5074658;28;20043;-62
2021/03/02 11:06:01;;;;;;;14.82;6.72;;;20.10;99.90;;;;;;5074536;28;20029;-62
2021/03/02 11:08:29;;;;;;;14.60;8.00;;;20.00;99.90;;;;;;5074552;28;20020;-62
2021/03/02 11:10:56;;;;;;;16.35;7.47;;;20.10;99.90;;;;;;5074497;28;20020;-62
2021/03/02 11:13:23;;;;;;;12.45;6.40;;;20.00;99.90;;;;;;5074516;28;20025;-62
2021/03/02 11:15:51;;;;;;;10.07;6.88;;;20.10;99.90;;;;;;5074467;28;20024;-63
2021/03/02 11:18:18;;;;;;;15.32;7.07;;;20.10;99.90;;;;;;5074381;28;20044;-63
2021/03/02 11:20:45;;;;;;;11.68;8.45;;;20.10;99.90;;;;;;5074527;28;20028;-62
2021/03/02 11:23:14;;;;;;;15.50;9.65;;;20.00;99.90;;;;;;5074585;28;20016;-62
2021/03/02 11:25:43;;;;;;;19.48;13.02;;;20.00;99.90;;;;;;5074655;28;20016;-62
2021/03/02 11:28:15;;;;;;;18.83;16.83;;;19.90;99.90;;;;;;5074129;28;20423;-62
2021/03/02 11:30:43;;;;;;;20.73;18.80;;;19.70;99.90;;;;;;5074111;28;20092;-61
2021/03/02 11:33:12;;;;;;;25.60;23.80;;;19.60;99.90;;;;;;5074009;28;20031;-61
2021/03/02 11:35:40;;;;;;;30.55;28.27;;;19.50;99.90;;;;;;5074038;28;20047;-62
2021/03/02 11:38:08;;;;;;;32.28;29.98;;;19.40;99.90;;;;;;5074529;28;20027;-61
2021/03/02 11:40:36;;;;;;;35.03;32.53;;;19.30;99.90;;;;;;5073772;28;20374;-62
2021/03/02 11:43:04;;;;;;;41.17;38.00;;;19.20;99.90;;;;;;5074206;28;20107;-62
2021/03/02 11:45:36;;;;;;;42.38;39.40;;;19.20;99.90;;;;;;5073831;28;20059;-62
2021/03/02 11:48:07;;;;;;;43.97;40.85;;;19.10;99.90;;;;;;5073763;28;20028;-62
2021/03/02 11:50:37;;;;;;;46.92;43.60;;;19.10;99.90;;;;;;5074068;28;20059;-62
2021/03/02 11:53:04;;;;;;;48.42;45.40;;;19.00;99.90;;;;;;5073681;28;20021;-62
2021/03/02 11:55:31;;;;;;;49.20;45.60;;;19.00;99.90;;;;;;5073570;28;20028;-63
2021/03/02 11:57:59;;;;;;;50.15;46.60;;;19.00;99.90;;;;;;5073618;28;20408;-62
2021/03/02 12:00:26;;;;;;;51.10;47.80;;;18.90;99.90;;;;;;5073536;28;20462;-63
2021/03/02 12:02:53;;;;;;;51.95;47.95;;;18.80;99.90;;;;;;5073094;28;20024;-62
2021/03/02 12:05:22;;;;;;;51.95;48.28;;;18.80;99.90;;;;;;5073513;28;20025;-62
2021/03/02 12:07:50;;;;;;;50.95;47.65;;;18.90;99.90;;;;;;5073389;28;20028;-62
2021/03/02 12:10:19;;;;;;;51.53;47.85;;;18.80;99.90;;;;;;5073453;28;20021;-62
2021/03/02 12:12:47;;;;;;;52.35;48.63;;;18.70;99.90;;;;;;5073590;28;20013;-62
2021/03/02 12:15:14;;;;;;;51.95;48.45;;;18.70;99.90;;;;;;5073422;28;20461;-62
2021/03/02 12:17:42;;;;;;;52.13;48.53;;;18.70;99.90;;;;;;5073603;28;20031;-62
2021/03/02 12:20:10;;;;;;;52.90;49.28;;;18.70;99.90;;;;;;5073255;28;20484;-62
2021/03/02 12:22:39;;;;;;;55.03;51.42;;;18.70;99.90;;;;;;5073255;28;20032;-63
2021/03/02 12:25:07;;;;;;;54.03;49.97;;;18.70;99.90;;;;;;5073528;28;20029;-62
2021/03/02 12:27:35;;;;;;;52.40;49.17;;;18.70;99.90;;;;;;5073249;28;20074;-63
2021/03/02 12:30:05;;;;;;;52.60;48.65;;;18.80;99.90;;;;;;5073169;28;20016;-62
2021/03/02 12:32:32;;;;;;;50.95;47.28;;;18.80;99.90;;;;;;5073267;28;20059;-63
2021/03/02 12:35:00;;;;;;;52.75;48.83;;;18.80;99.90;;;;;;5071908;28;20462;-62
2021/03/02 12:37:27;;;;;;;55.10;51.08;;;18.90;99.90;;;;;;5073199;28;20107;-62
2021/03/02 12:39:54;;;;;;;50.95;47.58;;;18.80;99.90;;;;;;5073177;28;20020;-62
2021/03/02 12:42:22;;;;;;;53.15;49.78;;;18.80;99.90;;;;;;5072955;28;20565;-63
2021/03/02 12:44:49;;;;;;;54.95;50.92;;;18.80;99.90;;;;;;5073067;28;20028;-62
2021/03/02 12:47:17;;;;;;;53.33;49.75;;;18.70;99.90;;;;;;5073020;28;20483;-62
2021/03/02 12:49:44;;;;;;;49.05;45.50;;;18.70;99.90;;;;;;5073060;28;20037;-62
2021/03/02 12:52:11;;;;;;;49.55;46.13;;;18.60;99.90;;;;;;5072978;28;20036;-62